sensor_id;sensor_type;location;lat;lon;timestamp;P1;durP1;ratioP1;P2;durP2;ratioP2
7683;SDS011;3884;48.616;12.872;2022-09-13T00:01:26;5.83;;;4.50;;
7683;SDS011;3884;48.616;12.872;2022-09-13T00:03:53;5.97;;;4.67;;
7683;SDS011;3884;48.616;12.872;2022-09-13T00:06:20;5.20;;;4.33;;
7683;SDS011;3884;48.616;12.872;2022-09-13T00:08:48;5.17;;;4.70;;
7683;SDS011;3884;48.616;12.872;2022-09-13T00:11:15;5.57;;;5.07;;
7683;SDS011;3884;48.616;12.872;2022-09-13T00:13:45;5.50;;;5.00;;
7683;SDS011;3884;48.616;12.872;2022-09-13T00:16:13;5.43;;;4.90;;
7683;SDS011;3884;48.616;12.872;2022-09-13T00:18:42;6.60;;;5.77;;
7683;SDS011;3884;48.616;12.872;2022-09-13T00:21:09;6.10;;;5.60;;
7683;SDS011;3884;48.616;12.872;2022-09-13T00:23:38;7.70;;;6.20;;
7683;SDS011;3884;48.616;12.872;2022-09-13T00:26:06;6.07;;;5.47;;
7683;SDS011;3884;48.616;12.872;2022-09-13T00:28:34;6.40;;;5.80;;
7683;SDS011;3884;48.616;12.872;2022-09-13T00:31:02;6.30;;;5.70;;
7683;SDS011;3884;48.616;12.872;2022-09-13T00:33:30;5.70;;;5.00;;
7683;SDS011;3884;48.616;12.872;2022-09-13T00:35:58;6.33;;;5.77;;
7683;SDS011;3884;48.616;12.872;2022-09-13T00:38:29;5.53;;;5.03;;
7683;SDS011;3884;48.616;12.872;2022-09-13T00:40:56;6.90;;;5.37;;
7683;SDS011;3884;48.616;12.872;2022-09-13T00:43:39;7.10;;;6.43;;
7683;SDS011;3884;48.616;12.872;2022-09-13T00:46:09;7.57;;;6.60;;
7683;SDS011;3884;48.616;12.872;2022-09-13T00:48:38;7.80;;;7.10;;
7683;SDS011;3884;48.616;12.872;2022-09-13T00:51:06;6.90;;;6.27;;
7683;SDS011;3884;48.616;12.872;2022-09-13T00:53:36;6.70;;;6.00;;
7683;SDS011;3884;48.616;12.872;2022-09-13T00:56:06;5.70;;;5.10;;
7683;SDS011;3884;48.616;12.872;2022-09-13T00:58:38;5.83;;;5.23;;
7683;SDS011;3884;48.616;12.872;2022-09-13T01:01:11;6.93;;;6.23;;
7683;SDS011;3884;48.616;12.872;2022-09-13T01:03:40;6.33;;;5.73;;
7683;SDS011;3884;48.616;12.872;2022-09-13T01:06:09;7.07;;;6.37;;
7683;SDS011;3884;48.616;12.872;2022-09-13T01:08:40;6.40;;;5.80;;
7683;SDS011;3884;48.616;12.872;2022-09-13T01:11:10;6.23;;;5.73;;
7683;SDS011;3884;48.616;12.872;2022-09-13T01:13:43;6.27;;;5.77;;
7683;SDS011;3884;48.616;12.872;2022-09-13T01:16:12;6.07;;;5.47;;
7683;SDS011;3884;48.616;12.872;2022-09-13T01:18:39;6.83;;;6.23;;
7683;SDS011;3884;48.616;12.872;2022-09-13T01:24:19;7.23;;;6.53;;
7683;SDS011;3884;48.616;12.872;2022-09-13T01:27:15;7.87;;;7.17;;
7683;SDS011;3884;48.616;12.872;2022-09-13T01:32:53;7.47;;;6.77;;
7683;SDS011;3884;48.616;12.872;2022-09-13T01:35:56;8.93;;;7.30;;
7683;SDS011;3884;48.616;12.872;2022-09-13T01:38:38;7.77;;;6.97;;
7683;SDS011;3884;48.616;12.872;2022-09-13T01:41:14;8.40;;;7.50;;
7683;SDS011;3884;48.616;12.872;2022-09-13T01:43:54;7.73;;;6.93;;
7683;SDS011;3884;48.616;12.872;2022-09-13T01:46:27;7.90;;;7.10;;
7683;SDS011;3884;48.616;12.872;2022-09-13T01:49:01;7.47;;;6.77;;
7683;SDS011;3884;48.616;12.872;2022-09-13T01:51:35;7.10;;;6.40;;
7683;SDS011;3884;48.616;12.872;2022-09-13T01:54:10;6.53;;;5.93;;
7683;SDS011;3884;48.616;12.872;2022-09-13T01:56:44;7.13;;;6.40;;
7683;SDS011;3884;48.616;12.872;2022-09-13T01:59:19;7.13;;;5.90;;
7683;SDS011;3884;48.616;12.872;2022-09-13T02:01:52;7.07;;;6.23;;
7683;SDS011;3884;48.616;12.872;2022-09-13T02:04:23;6.90;;;6.30;;
7683;SDS011;3884;48.616;12.872;2022-09-13T02:06:55;7.87;;;6.00;;
7683;SDS011;3884;48.616;12.872;2022-09-13T02:09:27;7.70;;;6.10;;
7683;SDS011;3884;48.616;12.872;2022-09-13T02:11:59;6.27;;;5.67;;
7683;SDS011;3884;48.616;12.872;2022-09-13T02:14:30;8.07;;;6.80;;
7683;SDS011;3884;48.616;12.872;2022-09-13T02:17:05;6.80;;;6.20;;
7683;SDS011;3884;48.616;12.872;2022-09-13T02:19:36;5.93;;;5.33;;
7683;SDS011;3884;48.616;12.872;2022-09-13T02:22:06;5.73;;;5.17;;
7683;SDS011;3884;48.616;12.872;2022-09-13T02:24:34;5.77;;;5.20;;
7683;SDS011;3884;48.616;12.872;2022-09-13T02:27:05;5.33;;;4.83;;
7683;SDS011;3884;48.616;12.872;2022-09-13T02:29:35;6.57;;;5.40;;
7683;SDS011;3884;48.616;12.872;2022-09-13T02:32:08;6.73;;;5.67;;
7683;SDS011;3884;48.616;12.872;2022-09-13T02:34:40;6.63;;;6.03;;
7683;SDS011;3884;48.616;12.872;2022-09-13T02:37:09;8.10;;;6.20;;
7683;SDS011;3884;48.616;12.872;2022-09-13T02:39:43;7.63;;;6.90;;
7683;SDS011;3884;48.616;12.872;2022-09-13T02:42:16;8.30;;;7.20;;
7683;SDS011;3884;48.616;12.872;2022-09-13T02:44:46;7.70;;;7.00;;
7683;SDS011;3884;48.616;12.872;2022-09-13T02:47:31;7.03;;;6.03;;
7683;SDS011;3884;48.616;12.872;2022-09-13T02:50:10;6.57;;;5.97;;
7683;SDS011;3884;48.616;12.872;2022-09-13T02:52:49;7.30;;;6.00;;
7683;SDS011;3884;48.616;12.872;2022-09-13T02:55:23;6.40;;;5.80;;
7683;SDS011;3884;48.616;12.872;2022-09-13T02:57:58;6.47;;;5.60;;
7683;SDS011;3884;48.616;12.872;2022-09-13T03:00:27;5.73;;;5.03;;
7683;SDS011;3884;48.616;12.872;2022-09-13T03:02:57;8.13;;;5.60;;
7683;SDS011;3884;48.616;12.872;2022-09-13T03:05:27;6.80;;;5.50;;
7683;SDS011;3884;48.616;12.872;2022-09-13T03:07:54;6.60;;;5.50;;
7683;SDS011;3884;48.616;12.872;2022-09-13T03:10:22;5.97;;;5.37;;
7683;SDS011;3884;48.616;12.872;2022-09-13T03:13:00;6.40;;;5.80;;
7683;SDS011;3884;48.616;12.872;2022-09-13T03:15:42;6.70;;;6.10;;
7683;SDS011;3884;48.616;12.872;2022-09-13T03:18:25;8.63;;;5.90;;
7683;SDS011;3884;48.616;12.872;2022-09-13T03:21:13;6.90;;;6.17;;
7683;SDS011;3884;48.616;12.872;2022-09-13T03:23:52;7.40;;;6.40;;
7683;SDS011;3884;48.616;12.872;2022-09-13T03:26:33;6.80;;;6.20;;
7683;SDS011;3884;48.616;12.872;2022-09-13T03:29:11;7.03;;;6.13;;
7683;SDS011;3884;48.616;12.872;2022-09-13T03:31:49;6.47;;;5.73;;
7683;SDS011;3884;48.616;12.872;2022-09-13T03:34:27;6.73;;;6.03;;
7683;SDS011;3884;48.616;12.872;2022-09-13T03:37:01;6.20;;;5.60;;
7683;SDS011;3884;48.616;12.872;2022-09-13T03:39:34;6.63;;;6.03;;
7683;SDS011;3884;48.616;12.872;2022-09-13T03:42:09;6.33;;;5.73;;
7683;SDS011;3884;48.616;12.872;2022-09-13T03:44:40;6.93;;;6.30;;
7683;SDS011;3884;48.616;12.872;2022-09-13T03:47:11;6.67;;;6.03;;
7683;SDS011;3884;48.616;12.872;2022-09-13T03:49:40;6.40;;;5.80;;
7683;SDS011;3884;48.616;12.872;2022-09-13T03:52:08;7.20;;;5.73;;
7683;SDS011;3884;48.616;12.872;2022-09-13T03:54:36;6.87;;;5.60;;
7683;SDS011;3884;48.616;12.872;2022-09-13T03:57:08;7.17;;;6.30;;
7683;SDS011;3884;48.616;12.872;2022-09-13T03:59:36;6.43;;;5.83;;
7683;SDS011;3884;48.616;12.872;2022-09-13T04:02:07;6.93;;;6.27;;
7683;SDS011;3884;48.616;12.872;2022-09-13T04:04:35;8.33;;;6.60;;
7683;SDS011;3884;48.616;12.872;2022-09-13T04:07:03;8.93;;;6.53;;
7683;SDS011;3884;48.616;12.872;2022-09-13T04:09:30;7.67;;;6.97;;
7683;SDS011;3884;48.616;12.872;2022-09-13T04:11:57;7.63;;;6.87;;
7683;SDS011;3884;48.616;12.872;2022-09-13T04:14:24;7.50;;;6.80;;
7683;SDS011;3884;48.616;12.872;2022-09-13T04:16:52;6.50;;;5.90;;
7683;SDS011;3884;48.616;12.872;2022-09-13T04:19:19;6.23;;;5.63;;
7683;SDS011;3884;48.616;12.872;2022-09-13T04:21:47;5.77;;;5.27;;
7683;SDS011;3884;48.616;12.872;2022-09-13T04:24:17;6.10;;;5.27;;
7683;SDS011;3884;48.616;12.872;2022-09-13T04:26:44;6.47;;;5.77;;
7683;SDS011;3884;48.616;12.872;2022-09-13T04:29:14;6.60;;;5.90;;
7683;SDS011;3884;48.616;12.872;2022-09-13T04:31:42;6.83;;;5.83;;
7683;SDS011;3884;48.616;12.872;2022-09-13T04:34:09;8.13;;;6.67;;
7683;SDS011;3884;48.616;12.872;2022-09-13T04:36:36;8.03;;;6.30;;
7683;SDS011;3884;48.616;12.872;2022-09-13T04:39:03;6.83;;;6.20;;
7683;SDS011;3884;48.616;12.872;2022-09-13T04:41:31;7.00;;;6.30;;
7683;SDS011;3884;48.616;12.872;2022-09-13T04:43:59;6.97;;;6.10;;
7683;SDS011;3884;48.616;12.872;2022-09-13T04:46:26;6.80;;;6.10;;
7683;SDS011;3884;48.616;12.872;2022-09-13T04:48:53;6.67;;;5.97;;
7683;SDS011;3884;48.616;12.872;2022-09-13T04:51:21;6.87;;;6.17;;
7683;SDS011;3884;48.616;12.872;2022-09-13T04:53:50;6.90;;;6.20;;
7683;SDS011;3884;48.616;12.872;2022-09-13T04:56:19;8.33;;;6.53;;
7683;SDS011;3884;48.616;12.872;2022-09-13T04:58:48;6.47;;;5.87;;
7683;SDS011;3884;48.616;12.872;2022-09-13T05:01:16;9.00;;;6.37;;
7683;SDS011;3884;48.616;12.872;2022-09-13T05:03:43;6.53;;;5.90;;
7683;SDS011;3884;48.616;12.872;2022-09-13T05:06:11;8.70;;;6.67;;
7683;SDS011;3884;48.616;12.872;2022-09-13T05:08:39;7.63;;;6.93;;
7683;SDS011;3884;48.616;12.872;2022-09-13T05:11:06;8.00;;;7.30;;
7683;SDS011;3884;48.616;12.872;2022-09-13T05:13:33;9.77;;;6.70;;
7683;SDS011;3884;48.616;12.872;2022-09-13T05:16:03;9.23;;;7.87;;
7683;SDS011;3884;48.616;12.872;2022-09-13T05:18:31;8.57;;;7.50;;
7683;SDS011;3884;48.616;12.872;2022-09-13T05:21:00;11.73;;;8.60;;
7683;SDS011;3884;48.616;12.872;2022-09-13T05:23:28;17.30;;;10.90;;
7683;SDS011;3884;48.616;12.872;2022-09-13T05:25:57;55.57;;;25.13;;
7683;SDS011;3884;48.616;12.872;2022-09-13T05:28:26;15.33;;;10.47;;
7683;SDS011;3884;48.616;12.872;2022-09-13T05:30:54;15.77;;;11.33;;
7683;SDS011;3884;48.616;12.872;2022-09-13T05:33:23;13.40;;;10.23;;
7683;SDS011;3884;48.616;12.872;2022-09-13T05:35:50;13.43;;;10.93;;
7683;SDS011;3884;48.616;12.872;2022-09-13T05:38:17;12.20;;;10.73;;
7683;SDS011;3884;48.616;12.872;2022-09-13T05:40:45;12.40;;;9.20;;
7683;SDS011;3884;48.616;12.872;2022-09-13T05:43:12;9.87;;;8.70;;
7683;SDS011;3884;48.616;12.872;2022-09-13T05:45:39;13.23;;;9.43;;
7683;SDS011;3884;48.616;12.872;2022-09-13T05:48:06;10.33;;;9.27;;
7683;SDS011;3884;48.616;12.872;2022-09-13T05:50:37;13.53;;;9.70;;
7683;SDS011;3884;48.616;12.872;2022-09-13T05:53:04;10.37;;;9.23;;
7683;SDS011;3884;48.616;12.872;2022-09-13T05:55:31;10.20;;;8.90;;
7683;SDS011;3884;48.616;12.872;2022-09-13T05:57:58;10.13;;;9.13;;
7683;SDS011;3884;48.616;12.872;2022-09-13T06:00:26;14.70;;;9.77;;
7683;SDS011;3884;48.616;12.872;2022-09-13T06:02:54;13.67;;;11.00;;
7683;SDS011;3884;48.616;12.872;2022-09-13T06:05:21;13.13;;;10.23;;
7683;SDS011;3884;48.616;12.872;2022-09-13T06:07:49;14.23;;;11.13;;
7683;SDS011;3884;48.616;12.872;2022-09-13T06:10:16;12.57;;;10.33;;
7683;SDS011;3884;48.616;12.872;2022-09-13T06:12:44;14.13;;;11.53;;
7683;SDS011;3884;48.616;12.872;2022-09-13T06:15:11;12.57;;;10.70;;
7683;SDS011;3884;48.616;12.872;2022-09-13T06:17:39;14.23;;;12.00;;
7683;SDS011;3884;48.616;12.872;2022-09-13T06:20:06;13.63;;;11.37;;
7683;SDS011;3884;48.616;12.872;2022-09-13T06:22:34;13.40;;;10.57;;
7683;SDS011;3884;48.616;12.872;2022-09-13T06:25:03;15.67;;;11.87;;
7683;SDS011;3884;48.616;12.872;2022-09-13T06:27:30;13.97;;;10.27;;
7683;SDS011;3884;48.616;12.872;2022-09-13T06:29:57;13.10;;;10.87;;
7683;SDS011;3884;48.616;12.872;2022-09-13T06:32:24;10.90;;;9.53;;
7683;SDS011;3884;48.616;12.872;2022-09-13T06:34:51;10.73;;;9.63;;
7683;SDS011;3884;48.616;12.872;2022-09-13T06:37:18;10.10;;;9.10;;
7683;SDS011;3884;48.616;12.872;2022-09-13T06:39:45;9.40;;;8.50;;
7683;SDS011;3884;48.616;12.872;2022-09-13T06:42:13;9.13;;;8.27;;
7683;SDS011;3884;48.616;12.872;2022-09-13T06:44:40;9.80;;;8.83;;
7683;SDS011;3884;48.616;12.872;2022-09-13T06:47:07;10.17;;;9.17;;
7683;SDS011;3884;48.616;12.872;2022-09-13T06:49:35;9.60;;;8.70;;
7683;SDS011;3884;48.616;12.872;2022-09-13T06:52:01;10.30;;;9.30;;
7683;SDS011;3884;48.616;12.872;2022-09-13T06:54:28;11.27;;;10.10;;
7683;SDS011;3884;48.616;12.872;2022-09-13T06:56:55;11.60;;;10.40;;
7683;SDS011;3884;48.616;12.872;2022-09-13T06:59:24;10.17;;;9.17;;
7683;SDS011;3884;48.616;12.872;2022-09-13T07:01:51;9.67;;;8.33;;
7683;SDS011;3884;48.616;12.872;2022-09-13T07:04:18;10.07;;;9.07;;
7683;SDS011;3884;48.616;12.872;2022-09-13T07:06:45;11.47;;;10.33;;
7683;SDS011;3884;48.616;12.872;2022-09-13T07:09:14;12.13;;;10.93;;
7683;SDS011;3884;48.616;12.872;2022-09-13T07:11:42;11.83;;;10.67;;
7683;SDS011;3884;48.616;12.872;2022-09-13T07:14:12;12.83;;;10.40;;
7683;SDS011;3884;48.616;12.872;2022-09-13T07:16:41;11.67;;;10.47;;
7683;SDS011;3884;48.616;12.872;2022-09-13T07:19:11;12.43;;;11.23;;
7683;SDS011;3884;48.616;12.872;2022-09-13T07:21:40;14.00;;;12.53;;
7683;SDS011;3884;48.616;12.872;2022-09-13T07:24:08;13.53;;;12.13;;
7683;SDS011;3884;48.616;12.872;2022-09-13T07:26:35;14.93;;;13.43;;
7683;SDS011;3884;48.616;12.872;2022-09-13T07:29:03;13.87;;;12.33;;
7683;SDS011;3884;48.616;12.872;2022-09-13T07:31:32;15.40;;;13.90;;
7683;SDS011;3884;48.616;12.872;2022-09-13T07:34:02;16.77;;;14.97;;
7683;SDS011;3884;48.616;12.872;2022-09-13T07:36:31;17.43;;;15.63;;
7683;SDS011;3884;48.616;12.872;2022-09-13T07:38:59;17.60;;;15.80;;
7683;SDS011;3884;48.616;12.872;2022-09-13T07:41:27;17.97;;;15.40;;
7683;SDS011;3884;48.616;12.872;2022-09-13T07:43:55;15.70;;;14.03;;
7683;SDS011;3884;48.616;12.872;2022-09-13T07:46:23;16.20;;;14.50;;
7683;SDS011;3884;48.616;12.872;2022-09-13T07:48:51;14.70;;;13.23;;
7683;SDS011;3884;48.616;12.872;2022-09-13T07:51:21;16.37;;;14.67;;
7683;SDS011;3884;48.616;12.872;2022-09-13T07:53:50;16.30;;;13.80;;
7683;SDS011;3884;48.616;12.872;2022-09-13T07:56:21;14.40;;;13.00;;
7683;SDS011;3884;48.616;12.872;2022-09-13T07:58:49;13.90;;;12.50;;
7683;SDS011;3884;48.616;12.872;2022-09-13T08:01:19;12.83;;;11.63;;
7683;SDS011;3884;48.616;12.872;2022-09-13T08:03:49;12.77;;;11.37;;
7683;SDS011;3884;48.616;12.872;2022-09-13T08:06:17;12.77;;;11.40;;
7683;SDS011;3884;48.616;12.872;2022-09-13T08:08:45;11.77;;;10.67;;
7683;SDS011;3884;48.616;12.872;2022-09-13T08:11:13;12.97;;;11.20;;
7683;SDS011;3884;48.616;12.872;2022-09-13T08:13:43;12.07;;;10.77;;
7683;SDS011;3884;48.616;12.872;2022-09-13T08:16:11;10.90;;;9.27;;
7683;SDS011;3884;48.616;12.872;2022-09-13T08:18:42;11.47;;;10.07;;
7683;SDS011;3884;48.616;12.872;2022-09-13T08:21:09;11.20;;;10.10;;
7683;SDS011;3884;48.616;12.872;2022-09-13T08:23:36;9.87;;;8.87;;
7683;SDS011;3884;48.616;12.872;2022-09-13T08:26:05;9.77;;;8.77;;
7683;SDS011;3884;48.616;12.872;2022-09-13T08:28:33;10.20;;;9.10;;
7683;SDS011;3884;48.616;12.872;2022-09-13T08:31:04;10.03;;;8.87;;
7683;SDS011;3884;48.616;12.872;2022-09-13T08:33:32;9.10;;;7.97;;
7683;SDS011;3884;48.616;12.872;2022-09-13T08:35:59;9.97;;;8.33;;
7683;SDS011;3884;48.616;12.872;2022-09-13T08:38:26;8.10;;;7.27;;
7683;SDS011;3884;48.616;12.872;2022-09-13T08:40:55;9.73;;;8.77;;
7683;SDS011;3884;48.616;12.872;2022-09-13T08:43:27;9.93;;;8.93;;
7683;SDS011;3884;48.616;12.872;2022-09-13T08:46:06;9.83;;;8.80;;
7683;SDS011;3884;48.616;12.872;2022-09-13T08:48:39;9.47;;;8.53;;
7683;SDS011;3884;48.616;12.872;2022-09-13T08:51:13;8.57;;;7.57;;
7683;SDS011;3884;48.616;12.872;2022-09-13T08:53:53;8.63;;;7.53;;
7683;SDS011;3884;48.616;12.872;2022-09-13T08:56:22;8.77;;;7.93;;
7683;SDS011;3884;48.616;12.872;2022-09-13T09:02:05;8.43;;;7.57;;
7683;SDS011;3884;48.616;12.872;2022-09-13T09:04:43;8.20;;;7.37;;
7683;SDS011;3884;48.616;12.872;2022-09-13T09:07:16;10.73;;;9.13;;
7683;SDS011;3884;48.616;12.872;2022-09-13T09:09:48;8.83;;;7.90;;
7683;SDS011;3884;48.616;12.872;2022-09-13T09:12:21;8.73;;;7.87;;
7683;SDS011;3884;48.616;12.872;2022-09-13T09:14:56;9.47;;;7.20;;
7683;SDS011;3884;48.616;12.872;2022-09-13T09:17:28;8.17;;;7.10;;
7683;SDS011;3884;48.616;12.872;2022-09-13T09:20:06;7.50;;;6.80;;
7683;SDS011;3884;48.616;12.872;2022-09-13T09:22:42;8.33;;;7.53;;
7683;SDS011;3884;48.616;12.872;2022-09-13T09:25:11;7.73;;;7.03;;
7683;SDS011;3884;48.616;12.872;2022-09-13T09:27:38;6.97;;;6.37;;
7683;SDS011;3884;48.616;12.872;2022-09-13T09:30:11;8.70;;;7.13;;
7683;SDS011;3884;48.616;12.872;2022-09-13T09:32:55;7.90;;;7.10;;
7683;SDS011;3884;48.616;12.872;2022-09-13T09:35:37;8.37;;;7.23;;
7683;SDS011;3884;48.616;12.872;2022-09-13T09:41:04;8.23;;;7.43;;
7683;SDS011;3884;48.616;12.872;2022-09-13T09:43:37;7.13;;;6.50;;
7683;SDS011;3884;48.616;12.872;2022-09-13T09:46:09;7.60;;;6.90;;
7683;SDS011;3884;48.616;12.872;2022-09-13T09:48:42;8.73;;;6.83;;
7683;SDS011;3884;48.616;12.872;2022-09-13T09:51:14;8.87;;;6.83;;
7683;SDS011;3884;48.616;12.872;2022-09-13T09:53:46;6.00;;;5.50;;
7683;SDS011;3884;48.616;12.872;2022-09-13T09:56:19;7.80;;;7.00;;
7683;SDS011;3884;48.616;12.872;2022-09-13T09:58:48;6.50;;;5.90;;
7683;SDS011;3884;48.616;12.872;2022-09-13T10:01:23;6.17;;;5.67;;
7683;SDS011;3884;48.616;12.872;2022-09-13T10:03:56;6.47;;;5.87;;
7683;SDS011;3884;48.616;12.872;2022-09-13T10:06:29;6.10;;;5.50;;
7683;SDS011;3884;48.616;12.872;2022-09-13T10:08:58;6.63;;;6.03;;
7683;SDS011;3884;48.616;12.872;2022-09-13T10:11:37;6.20;;;5.60;;
7683;SDS011;3884;48.616;12.872;2022-09-13T10:14:06;5.90;;;5.33;;
7683;SDS011;3884;48.616;12.872;2022-09-13T10:17:00;5.80;;;5.17;;
7683;SDS011;3884;48.616;12.872;2022-09-13T10:19:31;5.20;;;4.80;;
7683;SDS011;3884;48.616;12.872;2022-09-13T10:21:59;5.70;;;5.13;;
7683;SDS011;3884;48.616;12.872;2022-09-13T10:24:27;5.47;;;4.97;;
7683;SDS011;3884;48.616;12.872;2022-09-13T10:26:55;5.57;;;5.07;;
7683;SDS011;3884;48.616;12.872;2022-09-13T10:29:23;5.30;;;4.90;;
7683;SDS011;3884;48.616;12.872;2022-09-13T10:31:52;5.50;;;5.00;;
7683;SDS011;3884;48.616;12.872;2022-09-13T10:34:22;5.30;;;4.80;;
7683;SDS011;3884;48.616;12.872;2022-09-13T10:36:55;4.70;;;4.30;;
7683;SDS011;3884;48.616;12.872;2022-09-13T10:39:24;6.47;;;5.83;;
7683;SDS011;3884;48.616;12.872;2022-09-13T10:41:55;6.03;;;5.43;;
7683;SDS011;3884;48.616;12.872;2022-09-13T10:44:29;5.50;;;4.80;;
7683;SDS011;3884;48.616;12.872;2022-09-13T10:46:58;6.30;;;5.10;;
7683;SDS011;3884;48.616;12.872;2022-09-13T10:49:34;6.23;;;5.63;;
7683;SDS011;3884;48.616;12.872;2022-09-13T10:57:49;4.90;;;4.50;;
7683;SDS011;3884;48.616;12.872;2022-09-13T11:00:19;7.40;;;4.67;;
7683;SDS011;3884;48.616;12.872;2022-09-13T11:02:55;6.03;;;5.43;;
7683;SDS011;3884;48.616;12.872;2022-09-13T11:05:39;4.90;;;4.40;;
7683;SDS011;3884;48.616;12.872;2022-09-13T11:08:17;6.83;;;6.13;;
7683;SDS011;3884;48.616;12.872;2022-09-13T11:10:57;6.20;;;5.60;;
7683;SDS011;3884;48.616;12.872;2022-09-13T11:13:38;5.00;;;4.50;;
7683;SDS011;3884;48.616;12.872;2022-09-13T11:16:13;6.43;;;5.80;;
7683;SDS011;3884;48.616;12.872;2022-09-13T11:18:52;6.87;;;5.43;;
7683;SDS011;3884;48.616;12.872;2022-09-13T11:21:33;5.33;;;4.93;;
7683;SDS011;3884;48.616;12.872;2022-09-13T11:24:16;6.40;;;4.60;;
7683;SDS011;3884;48.616;12.872;2022-09-13T11:26:59;7.47;;;4.53;;
7683;SDS011;3884;48.616;12.872;2022-09-13T11:29:32;7.73;;;6.20;;
7683;SDS011;3884;48.616;12.872;2022-09-13T11:32:17;6.70;;;6.10;;
7683;SDS011;3884;48.616;12.872;2022-09-13T11:35:06;6.27;;;5.30;;
7683;SDS011;3884;48.616;12.872;2022-09-13T11:37:56;6.77;;;5.50;;
7683;SDS011;3884;48.616;12.872;2022-09-13T11:40:34;6.53;;;5.87;;
7683;SDS011;3884;48.616;12.872;2022-09-13T11:43:16;6.87;;;5.87;;
7683;SDS011;3884;48.616;12.872;2022-09-13T11:45:56;8.07;;;6.57;;
7683;SDS011;3884;48.616;12.872;2022-09-13T11:51:30;6.53;;;5.97;;
7683;SDS011;3884;48.616;12.872;2022-09-13T11:54:11;7.50;;;6.20;;
7683;SDS011;3884;48.616;12.872;2022-09-13T11:56:51;5.90;;;5.40;;
7683;SDS011;3884;48.616;12.872;2022-09-13T11:59:27;7.17;;;5.73;;
7683;SDS011;3884;48.616;12.872;2022-09-13T12:02:04;6.63;;;5.33;;
7683;SDS011;3884;48.616;12.872;2022-09-13T12:04:42;6.73;;;5.80;;
7683;SDS011;3884;48.616;12.872;2022-09-13T12:07:16;7.70;;;5.70;;
7683;SDS011;3884;48.616;12.872;2022-09-13T12:09:57;7.70;;;5.73;;
7683;SDS011;3884;48.616;12.872;2022-09-13T12:12:30;6.20;;;5.33;;
7683;SDS011;3884;48.616;12.872;2022-09-13T12:15:00;7.07;;;6.30;;
7683;SDS011;3884;48.616;12.872;2022-09-13T12:17:34;7.33;;;6.03;;
7683;SDS011;3884;48.616;12.872;2022-09-13T12:20:04;6.60;;;6.00;;
7683;SDS011;3884;48.616;12.872;2022-09-13T12:22:38;6.50;;;5.90;;
7683;SDS011;3884;48.616;12.872;2022-09-13T12:25:10;6.80;;;6.10;;
7683;SDS011;3884;48.616;12.872;2022-09-13T12:27:47;6.90;;;6.00;;
7683;SDS011;3884;48.616;12.872;2022-09-13T12:30:20;8.83;;;6.07;;
7683;SDS011;3884;48.616;12.872;2022-09-13T12:32:49;7.90;;;6.03;;
7683;SDS011;3884;48.616;12.872;2022-09-13T12:35:18;9.23;;;6.10;;
7683;SDS011;3884;48.616;12.872;2022-09-13T12:37:55;7.30;;;6.53;;
7683;SDS011;3884;48.616;12.872;2022-09-13T12:40:50;8.17;;;6.17;;
7683;SDS011;3884;48.616;12.872;2022-09-13T12:43:44;6.50;;;5.90;;
7683;SDS011;3884;48.616;12.872;2022-09-13T12:49:39;5.53;;;5.03;;
7683;SDS011;3884;48.616;12.872;2022-09-13T12:52:22;6.17;;;5.30;;
7683;SDS011;3884;48.616;12.872;2022-09-13T12:57:56;6.20;;;5.60;;
7683;SDS011;3884;48.616;12.872;2022-09-13T13:00:32;5.63;;;5.13;;
7683;SDS011;3884;48.616;12.872;2022-09-13T13:03:05;5.93;;;5.40;;
7683;SDS011;3884;48.616;12.872;2022-09-13T13:05:40;5.50;;;5.00;;
7683;SDS011;3884;48.616;12.872;2022-09-13T13:08:19;5.30;;;4.90;;
7683;SDS011;3884;48.616;12.872;2022-09-13T13:11:00;5.70;;;5.20;;
7683;SDS011;3884;48.616;12.872;2022-09-13T13:13:31;5.30;;;4.80;;
7683;SDS011;3884;48.616;12.872;2022-09-13T13:16:04;8.23;;;5.93;;
7683;SDS011;3884;48.616;12.872;2022-09-13T13:18:48;5.50;;;5.00;;
7683;SDS011;3884;48.616;12.872;2022-09-13T13:33:13;5.63;;;5.13;;
7683;SDS011;3884;48.616;12.872;2022-09-13T13:35:43;5.53;;;5.03;;
7683;SDS011;3884;48.616;12.872;2022-09-13T13:41:04;6.57;;;5.10;;
7683;SDS011;3884;48.616;12.872;2022-09-13T13:43:34;4.87;;;4.47;;
7683;SDS011;3884;48.616;12.872;2022-09-13T13:54:59;5.00;;;4.60;;
7683;SDS011;3884;48.616;12.872;2022-09-13T13:57:30;5.60;;;4.57;;
7683;SDS011;3884;48.616;12.872;2022-09-13T14:00:03;5.37;;;4.73;;
7683;SDS011;3884;48.616;12.872;2022-09-13T14:02:41;4.93;;;4.53;;
7683;SDS011;3884;48.616;12.872;2022-09-13T14:05:23;4.97;;;4.50;;
7683;SDS011;3884;48.616;12.872;2022-09-13T14:11:07;7.20;;;5.10;;
7683;SDS011;3884;48.616;12.872;2022-09-13T14:13:45;5.93;;;5.43;;
7683;SDS011;3884;48.616;12.872;2022-09-13T14:16:24;5.33;;;4.87;;
7683;SDS011;3884;48.616;12.872;2022-09-13T14:19:03;5.30;;;4.90;;
7683;SDS011;3884;48.616;12.872;2022-09-13T14:21:43;5.93;;;5.33;;
7683;SDS011;3884;48.616;12.872;2022-09-13T14:24:17;5.57;;;5.03;;
7683;SDS011;3884;48.616;12.872;2022-09-13T14:26:49;7.10;;;5.13;;
7683;SDS011;3884;48.616;12.872;2022-09-13T14:29:19;6.03;;;5.53;;
7683;SDS011;3884;48.616;12.872;2022-09-13T14:31:47;6.10;;;5.57;;
7683;SDS011;3884;48.616;12.872;2022-09-13T14:34:20;5.67;;;5.17;;
7683;SDS011;3884;48.616;12.872;2022-09-13T14:36:51;5.63;;;5.13;;
7683;SDS011;3884;48.616;12.872;2022-09-13T14:39:19;6.07;;;5.47;;
7683;SDS011;3884;48.616;12.872;2022-09-13T14:41:46;5.70;;;5.20;;
7683;SDS011;3884;48.616;12.872;2022-09-13T14:44:23;6.20;;;5.60;;
7683;SDS011;3884;48.616;12.872;2022-09-13T14:46:52;6.33;;;4.90;;
7683;SDS011;3884;48.616;12.872;2022-09-13T14:49:23;6.07;;;5.47;;
7683;SDS011;3884;48.616;12.872;2022-09-13T14:51:54;5.30;;;4.90;;
7683;SDS011;3884;48.616;12.872;2022-09-13T14:54:26;6.23;;;5.63;;
7683;SDS011;3884;48.616;12.872;2022-09-13T14:57:00;5.50;;;4.70;;
7683;SDS011;3884;48.616;12.872;2022-09-13T14:59:31;5.93;;;4.90;;
7683;SDS011;3884;48.616;12.872;2022-09-13T15:02:04;5.50;;;5.00;;
7683;SDS011;3884;48.616;12.872;2022-09-13T15:04:32;5.90;;;4.97;;
7683;SDS011;3884;48.616;12.872;2022-09-13T15:07:06;5.93;;;5.43;;
7683;SDS011;3884;48.616;12.872;2022-09-13T15:09:34;5.73;;;5.23;;
7683;SDS011;3884;48.616;12.872;2022-09-13T15:14:47;5.83;;;5.33;;
7683;SDS011;3884;48.616;12.872;2022-09-13T15:17:14;6.20;;;5.60;;
7683;SDS011;3884;48.616;12.872;2022-09-13T15:19:41;6.27;;;5.40;;
7683;SDS011;3884;48.616;12.872;2022-09-13T15:22:11;6.17;;;5.67;;
7683;SDS011;3884;48.616;12.872;2022-09-13T15:24:44;5.70;;;5.17;;
7683;SDS011;3884;48.616;12.872;2022-09-13T15:27:19;5.63;;;4.87;;
7683;SDS011;3884;48.616;12.872;2022-09-13T15:29:52;5.57;;;5.03;;
7683;SDS011;3884;48.616;12.872;2022-09-13T15:32:21;5.47;;;5.03;;
7683;SDS011;3884;48.616;12.872;2022-09-13T15:34:50;5.50;;;5.00;;
7683;SDS011;3884;48.616;12.872;2022-09-13T15:37:17;5.73;;;4.93;;
7683;SDS011;3884;48.616;12.872;2022-09-13T15:40:09;5.53;;;4.83;;
7683;SDS011;3884;48.616;12.872;2022-09-13T15:42:48;5.17;;;4.67;;
7683;SDS011;3884;48.616;12.872;2022-09-13T15:45:17;6.33;;;5.53;;
7683;SDS011;3884;48.616;12.872;2022-09-13T15:47:46;8.83;;;7.93;;
7683;SDS011;3884;48.616;12.872;2022-09-13T15:50:18;20.53;;;16.37;;
7683;SDS011;3884;48.616;12.872;2022-09-13T15:52:47;8.63;;;6.60;;
7683;SDS011;3884;48.616;12.872;2022-09-13T15:55:14;5.80;;;5.30;;
7683;SDS011;3884;48.616;12.872;2022-09-13T15:57:41;6.53;;;5.50;;
7683;SDS011;3884;48.616;12.872;2022-09-13T16:00:14;6.50;;;5.90;;
7683;SDS011;3884;48.616;12.872;2022-09-13T16:02:42;6.00;;;5.40;;
7683;SDS011;3884;48.616;12.872;2022-09-13T16:05:09;6.73;;;5.50;;
7683;SDS011;3884;48.616;12.872;2022-09-13T16:07:37;6.73;;;5.13;;
7683;SDS011;3884;48.616;12.872;2022-09-13T16:10:09;6.27;;;5.23;;
7683;SDS011;3884;48.616;12.872;2022-09-13T16:12:37;7.80;;;5.77;;
7683;SDS011;3884;48.616;12.872;2022-09-13T16:15:05;7.47;;;5.93;;
7683;SDS011;3884;48.616;12.872;2022-09-13T16:17:34;6.83;;;6.17;;
7683;SDS011;3884;48.616;12.872;2022-09-13T16:20:01;9.50;;;8.50;;
7683;SDS011;3884;48.616;12.872;2022-09-13T16:22:28;15.27;;;13.43;;